Time;durP1;ratioP1;P1;durP2;ratioP2;P2;SDS_P1;SDS_P2;PMS_P1;PMS_P2;Temp;Humidity;BMP_temperature;BMP_pressure;BME280_temperature;BME280_humidity;BME280_pressure;Samples;Min_cycle;Max_cycle;Signal;HPM_P1;HPM_P2
2023/04/06 00:02:35;;;;;;;7.93;5.85;;;;;;;22.84;47.84;101768.78;20747463;28;20143;-71
2023/04/06 00:12:36;;;;;;;9.95;5.53;;;;;;;22.82;47.81;101762.66;20722857;28;20050;-72
2023/04/06 00:22:37;;;;;;;8.05;5.65;;;;;;;22.80;47.95;101770.44;20755618;28;20103;-72
2023/04/06 00:32:39;;;;;;;8.70;6.20;;;;;;;22.95;47.88;101802.34;20745846;28;20042;-71
2023/04/06 00:42:41;;;;;;;9.40;6.00;;;;;;;22.56;47.62;101772.88;20734904;28;20042;-70
2023/04/06 00:52:42;;;;;;;11.13;5.97;;;;;;;22.88;47.44;101771.88;20755453;28;20076;-71
2023/04/06 01:02:47;;;;;;;11.25;6.22;;;;;;;23.05;47.97;101785.66;20750224;28;20544;-70
2023/04/06 01:12:49;;;;;;;12.25;6.32;;;;;;;23.05;47.50;101800.44;20743957;28;20139;-69
2023/04/06 01:22:50;;;;;;;8.10;6.32;;;;;;;23.08;47.59;101782.28;20758944;28;20041;-69
2023/04/06 01:32:52;;;;;;;10.38;6.90;;;;;;;23.17;47.55;101797.38;20750388;28;20077;-69
2023/04/06 01:42:53;;;;;;;9.15;6.70;;;;;;;23.15;47.70;101809.97;20747723;28;20037;-69
2023/04/06 01:52:55;;;;;;;11.52;6.90;;;;;;;23.14;47.85;101816.63;20761356;28;20104;-69
2023/04/06 02:02:56;;;;;;;13.60;7.45;;;;;;;22.92;47.77;101788.97;20757640;28;20046;-70
2023/04/06 02:12:57;;;;;;;13.27;8.30;;;;;;;23.07;47.89;101825.28;20756989;28;20045;-69
2023/04/06 02:23:05;;;;;;;15.85;7.22;;;;;;;23.03;48.01;101818.56;20774690;28;20046;-68
2023/04/06 02:33:06;;;;;;;9.87;7.17;;;;;;;22.88;47.99;101794.22;20772342;28;20497;-70
2023/04/06 02:43:08;;;;;;;10.93;7.50;;;;;;;22.68;47.65;101743.88;20750625;28;20045;-70
2023/04/06 02:53:10;;;;;;;11.70;7.18;;;;;;;22.91;47.40;101749.03;20788842;28;20053;-71
2023/04/06 03:03:11;;;;;;;9.60;6.82;;;;;;;21.81;46.90;101529.72;20804403;28;20041;-71
2023/04/06 03:13:13;;;;;;;11.32;7.32;;;;;;;23.43;46.87;101789.91;20778715;28;20037;-71
2023/04/06 03:23:14;;;;;;;12.63;7.55;;;;;;;23.04;46.58;101714.16;20756343;28;20112;-71
2023/04/06 03:33:16;;;;;;;11.05;7.30;;;;;;;22.93;46.52;101684.56;20715039;28;20050;-72
2023/04/06 03:43:20;;;;;;;15.52;7.68;;;;;;;23.55;46.14;101767.28;20739359;28;20543;-70
2023/04/06 03:53:21;;;;;;;12.77;7.68;;;;;;;23.58;46.13;101759.16;20743593;28;20108;-71
2023/04/06 04:03:23;;;;;;;10.82;7.65;;;;;;;23.62;45.76;101776.22;20725023;28;20033;-71
2023/04/06 04:13:25;;;;;;;12.93;8.18;;;;;;;23.16;45.90;101688.78;20745703;28;20493;-71
2023/04/06 04:23:26;;;;;;;13.85;7.65;;;;;;;23.31;45.88;101703.56;20693199;28;20046;-69
2023/04/06 04:33:28;;;;;;;11.93;7.50;;;;;;;23.63;45.87;101733.19;20744805;28;20041;-69
2023/04/06 04:43:29;;;;;;;13.10;7.95;;;;;;;23.66;45.85;101749.44;20747216;28;20107;-69
2023/04/06 04:53:30;;;;;;;15.30;8.70;;;;;;;23.68;46.33;101752.75;20745842;28;20076;-69
2023/04/06 05:03:33;;;;;;;13.02;8.05;;;;;;;23.54;46.16;101734.88;20730462;28;20037;-72
2023/04/06 05:13:34;;;;;;;15.73;9.70;;;;;;;23.62;45.91;101737.09;20775659;28;20041;-71
2023/04/06 05:23:35;;;;;;;14.00;8.77;;;;;;;23.65;45.86;101727.38;20778257;28;20026;-71
2023/04/06 05:33:37;;;;;;;18.98;9.52;;;;;;;23.61;45.78;101706.66;20775216;28;20038;-71
2023/04/06 05:43:38;;;;;;;14.07;8.55;;;;;;;23.70;45.48;101718.97;20753902;28;20042;-71
2023/04/06 05:53:40;;;;;;;15.40;8.30;;;;;;;23.81;45.49;101735.44;20761686;28;20041;-71
2023/04/06 06:03:41;;;;;;;15.13;9.77;;;;;;;23.83;45.30;101722.03;20805521;28;20397;-70
2023/04/06 06:13:45;;;;;;;15.93;9.07;;;;;;;23.78;45.14;101708.06;20789556;28;20469;-70
2023/04/06 06:23:49;;;;;;;14.35;9.25;;;;;;;23.89;44.90;101719.22;20739489;28;20053;-71
2023/04/06 06:33:51;;;;;;;14.75;8.98;;;;;;;23.86;45.14;101711.38;20672728;28;20046;-71
2023/04/06 06:44:36;;;;;;;20.25;9.02;;;;;;;23.83;44.81;101699.66;21001330;28;20398;-71
2023/04/06 06:54:38;;;;;;;13.68;8.65;;;;;;;23.86;44.62;101700.22;21052444;28;20087;-70
2023/04/06 07:04:39;;;;;;;15.80;8.50;;;;;;;23.81;44.89;101676.72;20950478;28;20325;-70
2023/04/06 07:14:41;;;;;;;13.65;9.15;;;;;;;23.66;44.53;101651.63;20949036;28;20399;-70
2023/04/06 07:24:42;;;;;;;13.23;8.27;;;;;;;23.89;44.85;101677.28;20894467;28;20393;-69
2023/04/06 07:34:45;;;;;;;12.32;8.10;;;;;;;23.87;44.32;101669.19;20916041;28;20040;-70
2023/04/06 07:44:47;;;;;;;13.65;8.25;;;;;;;23.84;44.77;101661.38;20948092;28;20045;-71
2023/04/06 07:54:49;;;;;;;13.13;8.50;;;;;;;23.78;44.30;101632.59;20846791;28;20049;-71
2023/04/06 08:04:51;;;;;;;11.82;7.82;;;;;;;23.76;44.37;101622.81;20869564;28;20071;-71
2023/04/06 08:14:52;;;;;;;13.10;9.20;;;;;;;23.83;44.44;101677.31;20901826;28;20094;-71
2023/04/06 08:24:54;;;;;;;12.82;8.25;;;;;;;23.86;44.37;101697.41;20906641;28;20550;-70
2023/04/06 08:34:55;;;;;;;12.18;8.10;;;;;;;23.83;44.35;101694.06;20919489;28;20045;-70
2023/04/06 08:44:57;;;;;;;9.70;7.43;;;;;;;23.78;44.15;101680.13;20812325;28;20090;-70
2023/04/06 08:54:58;;;;;;;13.98;8.93;;;;;;;23.82;44.37;101703.59;20811108;28;20056;-71
2023/04/06 09:05:03;;;;;;;11.80;8.43;;;;;;;23.72;44.17;101675.63;20832753;28;20041;-71
2023/04/06 09:15:05;;;;;;;11.85;8.98;;;;;;;23.74;44.13;101690.19;20819322;28;20066;-71
2023/04/06 09:25:17;;;;;;;12.10;8.65;;;;;;;23.79;44.33;101720.91;20752068;28;20064;-71
2023/04/06 09:35:31;;;;;;;12.50;7.82;;;;;;;23.74;43.91;101703.31;20829085;28;20111;-71
2023/04/06 09:45:35;;;;;;;13.43;8.30;;;;;;;23.77;44.06;101723.13;20873665;28;20040;-71
2023/04/06 09:55:45;;;;;;;11.65;8.38;;;;;;;23.75;44.10;101753.34;20913485;28;20545;-71
2023/04/06 10:05:55;;;;;;;14.85;9.02;;;;;;;23.76;43.85;101782.94;20912706;28;20025;-70
2023/04/06 10:16:02;;;;;;;12.40;8.48;;;;;;;23.78;43.92;101794.72;20911896;28;20071;-72
2023/04/06 10:26:04;;;;;;;11.68;7.63;;;;;;;23.75;43.96;101800.84;20903116;28;20025;-71
2023/04/06 10:36:21;;;;;;;12.70;8.32;;;;;;;23.71;43.88;101805.31;20828608;28;20099;-70
2023/04/06 10:46:33;;;;;;;14.20;8.40;;;;;;;23.43;45.08;101808.63;20817136;28;20046;-70
2023/04/06 10:56:38;;;;;;;22.33;8.90;;;;;;;22.77;44.83;101740.31;20813893;28;20122;-71
2023/04/06 11:06:40;;;;;;;37.15;9.68;;;;;;;23.24;45.30;101825.91;20825032;28;20029;-70
2023/04/06 11:16:41;;;;;;;16.90;8.57;;;;;;;22.98;45.51;101797.06;20826701;28;20076;-69
2023/04/06 11:26:51;;;;;;;17.05;8.90;;;;;;;23.15;45.52;101852.69;20824375;28;20118;-69
2023/04/06 11:36:57;;;;;;;14.77;8.35;;;;;;;23.07;45.67;101870.78;20840641;28;20045;-69
2023/04/06 11:47:00;;;;;;;13.90;8.35;;;;;;;23.11;45.56;101899.00;20837169;28;20476;-68
2023/04/06 11:57:02;;;;;;;12.05;8.05;;;;;;;23.10;45.59;101908.50;20835510;28;20103;-67
2023/04/06 12:07:04;;;;;;;11.52;7.63;;;;;;;22.87;45.48;101886.59;20851642;28;20048;-68
2023/04/06 12:17:06;;;;;;;14.90;8.85;;;;;;;22.99;45.53;101902.00;20848262;28;20099;-69
2023/04/06 12:27:08;;;;;;;12.48;7.82;;;;;;;22.84;45.89;101879.59;20837083;28;20075;-69
2023/04/06 12:37:10;;;;;;;11.57;7.88;;;;;;;22.98;46.10;101882.75;20841775;28;20455;-69
2023/04/06 12:47:14;;;;;;;19.35;11.68;;;;;;;23.08;48.62;101911.53;20841051;28;20037;-69
2023/04/06 12:57:18;;;;;;;19.08;10.13;;;;;;;23.16;48.67;101924.16;20831936;28;20046;-70
2023/04/06 13:07:19;;;;;;;20.77;9.73;;;;;;;23.15;48.72;101921.63;20850684;28;20040;-70
2023/04/06 13:17:26;;;;;;;19.35;10.65;;;;;;;23.12;48.35;101930.56;20832532;28;20123;-67
2023/04/06 13:27:27;;;;;;;15.88;10.32;;;;;;;23.06;48.26;101924.13;20833317;28;20033;-68
2023/04/06 13:37:29;;;;;;;19.95;8.90;;;;;;;23.14;48.03;101928.31;20832240;28;20057;-69
2023/04/06 13:47:31;;;;;;;16.20;10.05;;;;;;;23.04;47.80;101920.72;20766387;28;20050;-70
2023/04/06 13:57:32;;;;;;;13.93;8.77;;;;;;;23.10;47.72;101942.00;20752065;28;20048;-70
2023/04/06 14:07:34;;;;;;;19.20;11.10;;;;;;;23.09;48.01;101951.47;20748488;28;20070;-69
2023/04/06 14:17:35;;;;;;;15.23;11.23;;;;;;;23.14;48.07;101976.66;20747896;28;20042;-69
2023/04/06 14:27:39;;;;;;;16.08;10.60;;;;;;;23.12;48.05;101978.84;20747540;28;20069;-69
2023/04/06 14:37:41;;;;;;;14.43;9.88;;;;;;;23.12;47.96;101984.44;20748121;28;20405;-68
2023/04/06 14:47:42;;;;;;;14.30;10.05;;;;;;;23.16;48.33;102002.34;20746377;28;20038;-68
2023/04/06 14:57:43;;;;;;;16.20;10.82;;;;;;;23.25;48.50;102006.28;20748008;28;20048;-70
2023/04/06 15:07:45;;;;;;;17.05;11.00;;;;;;;23.26;48.44;101980.03;20761824;28;20543;-69
2023/04/06 15:17:46;;;;;;;13.70;10.45;;;;;;;23.31;48.82;101994.03;20760717;28;20428;-69
2023/04/06 15:27:48;;;;;;;14.18;10.98;;;;;;;23.33;49.00;101997.41;20760242;28;20025;-69
2023/04/06 15:37:49;;;;;;;17.17;12.50;;;;;;;23.38;48.96;101981.78;20759157;28;20045;-70
2023/04/06 15:47:51;;;;;;;16.05;11.40;;;;;;;23.36;49.06;101968.06;20758516;28;20551;-69
2023/04/06 15:57:55;;;;;;;16.77;12.05;;;;;;;23.38;48.96;101977.03;20757805;28;20088;-69
2023/04/06 16:07:56;;;;;;;14.13;11.20;;;;;;;23.38;48.85;101968.66;20756897;28;20045;-71
2023/04/06 16:18:01;;;;;;;15.80;11.45;;;;;;;23.43;48.88;101945.50;20756496;28;20025;-70
2023/04/06 16:28:06;;;;;;;15.20;11.13;;;;;;;23.44;48.99;101947.16;20755759;28;20034;-68
2023/04/06 16:38:07;;;;;;;14.90;11.48;;;;;;;23.46;48.75;101936.53;20754529;28;20046;-69
2023/04/06 16:48:08;;;;;;;17.90;11.20;;;;;;;23.48;48.96;101931.53;20754317;28;20038;-69
2023/04/06 16:58:10;;;;;;;14.32;10.75;;;;;;;23.53;48.59;101900.81;20752678;28;20096;-69
2023/04/06 17:08:11;;;;;;;16.25;10.98;;;;;;;23.62;48.49;101921.50;20752421;28;20038;-69
2023/04/06 17:18:13;;;;;;;14.02;10.77;;;;;;;23.69;48.38;101905.38;20751589;28;20129;-68
2023/04/06 17:28:14;;;;;;;15.38;11.00;;;;;;;23.77;48.35;101890.81;20750106;28;20473;-68
2023/04/06 17:38:15;;;;;;;13.98;11.38;;;;;;;23.84;47.66;101873.78;20751812;28;20049;-68
2023/04/06 17:48:17;;;;;;;14.00;10.38;;;;;;;23.87;48.19;101862.06;20768263;28;20049;-68
2023/04/06 17:58:18;;;;;;;13.40;10.57;;;;;;;23.90;48.19;101839.13;20749090;28;20469;-68
2023/04/06 18:08:21;;;;;;;13.10;10.27;;;;;;;24.02;47.96;101830.47;20748586;28;20030;-69
2023/04/06 18:18:22;;;;;;;11.93;9.70;;;;;;;24.00;48.18;101832.69;20747741;28;20046;-70
2023/04/06 18:28:24;;;;;;;12.27;9.30;;;;;;;23.88;47.89;101770.66;20762831;28;20055;-69
2023/04/06 18:38:25;;;;;;;14.82;9.32;;;;;;;24.00;47.77;101765.59;20746439;28;20050;-69
2023/04/06 18:48:35;;;;;;;12.57;8.20;;;;;;;23.99;47.72;101763.91;20745991;28;20034;-69
2023/04/06 18:58:41;;;;;;;10.57;8.82;;;;;;;24.22;47.79;101782.88;20746344;28;20045;-70
2023/04/06 19:08:42;;;;;;;9.35;8.43;;;;;;;24.29;47.80;101777.84;20745737;28;20045;-68
2023/04/06 19:18:44;;;;;;;10.25;8.65;;;;;;;24.31;47.82;101750.41;20744424;28;20046;-69
2023/04/06 19:28:46;;;;;;;11.57;8.45;;;;;;;24.37;48.05;101740.06;20744834;28;20555;-69
2023/04/06 19:38:48;;;;;;;9.27;7.20;;;;;;;24.40;47.97;101752.66;20759358;28;20045;-69
2023/04/06 19:48:49;;;;;;;8.75;7.85;;;;;;;24.16;47.70;101691.75;20753675;28;20212;-68
2023/04/06 19:58:53;;;;;;;10.48;8.30;;;;;;;24.46;47.56;101734.72;20757503;28;20048;-69
2023/04/06 20:08:55;;;;;;;7.88;7.10;;;;;;;24.48;47.18;101727.72;20757228;28;20042;-68
2023/04/06 20:18:56;;;;;;;8.90;6.72;;;;;;;24.44;47.74;101714.59;20756825;28;20042;-68
2023/04/06 20:29:00;;;;;;;8.25;6.78;;;;;;;24.51;47.85;101737.50;20755593;28;20115;-68
2023/04/06 20:39:22;;;;;;;8.13;6.53;;;;;;;24.45;47.42;101699.50;20754628;28;20493;-68
2023/04/06 20:49:24;;;;;;;8.30;6.45;;;;;;;24.50;47.63;101719.03;20752838;28;20409;-68
2023/04/06 20:59:28;;;;;;;7.50;6.10;;;;;;;24.36;47.61;101668.44;20753149;28;20030;-68
2023/04/06 21:09:30;;;;;;;6.15;5.57;;;;;;;24.44;47.58;101664.25;20752728;28;20440;-69
2023/04/06 21:19:31;;;;;;;7.20;5.60;;;;;;;24.37;47.84;101664.53;20752074;28;20041;-69
2023/04/06 21:29:33;;;;;;;6.05;5.45;;;;;;;24.57;47.34;101684.03;20751324;28;20516;-68
2023/04/06 21:39:37;;;;;;;6.30;5.50;;;;;;;24.44;47.47;101670.69;20754442;28;20414;-68
2023/04/06 21:49:39;;;;;;;6.10;5.25;;;;;;;24.43;47.01;101684.97;20749431;28;20038;-68
2023/04/06 21:59:40;;;;;;;9.15;6.05;;;;;;;24.57;46.51;101714.00;20748872;28;20382;-69
2023/04/06 22:09:48;;;;;;;8.02;6.53;;;;;;;24.57;46.06;101703.63;20748657;28;20432;-69
2023/04/06 22:19:49;;;;;;;7.03;6.03;;;;;;;24.45;46.00;101689.13;20747809;28;20045;-69
2023/04/06 22:29:50;;;;;;;7.47;5.65;;;;;;;24.59;45.96;101723.75;20747022;28;20369;-69
2023/04/06 22:39:52;;;;;;;6.00;5.38;;;;;;;24.63;45.92;101726.81;20746474;28;20100;-70
2023/04/06 22:49:53;;;;;;;7.30;5.38;;;;;;;24.64;45.95;101736.88;20746562;28;20065;-70
2023/04/06 22:59:54;;;;;;;5.50;4.82;;;;;;;24.65;46.23;101732.97;20746202;28;20045;-69
2023/04/06 23:09:56;;;;;;;6.50;5.10;;;;;;;24.50;45.97;101741.44;20745682;28;20038;-70
2023/04/06 23:19:57;;;;;;;5.60;5.10;;;;;;;24.66;45.83;101799.03;20752374;28;20401;-68
2023/04/06 23:29:59;;;;;;;5.90;5.07;;;;;;;24.61;45.77;101807.44;20760751;28;20038;-69
2023/04/06 23:40:00;;;;;;;5.03;4.53;;;;;;;24.67;46.07;101819.44;20759508;28;20168;-69
2023/04/06 23:50:02;;;;;;;4.53;4.03;;;;;;;24.63;46.02;101863.13;20759200;28;20068;-68
